Dades meteomassalio
Diari Summary for Diciembre 22, 2017 Units:  English    Metric   Both
« Previous Day
Next Day »
Diari Semanal Mensual Anual Personalitzat
  Maxima: Minima: Mijana:
Temperatura: TemperatureC °F -1.1 °F 4.4 °F
Rosada: DewpointC °F -3.4 °F 0.3 °F
Humitat: Humidity % 57 % 76 %
Velocitat del vent: WindSpeedKMH mph 0.0 mph 8.7 mph
Racha vent: WindSpeedGustKMH mph - -
Vent:- - NW
Pressio: PressurehPa in 1036.1 in -
Pluja: 0.0 in    
Historical Graphs
 
 
Tabular Data for Diciembre 22, 2017
Time Temperature Dew Point Pressure Wind Wind Speed Wind Gust Humidity Rainfall Rate (Hourly) solar Conditions
TemperatureC °F DewpointC °F PressurehPa in Calm     Humidity % HourlyPrecipMM in SolarRadiationWatts/m^2 W/m2 Conditions
00:01 1.1 °F -1.1 °F 1040.2 in Calm     85 % 0.0 in 0.0 W/m2 CLR
00:02 1.1 °F -1.1 °F 1040.2 in Calm     85 % 0.0 in 0.0 W/m2 CLR
00:07 1.7 °F -0.7 °F 1039.8 in Calm     84 % 0.0 in 0.0 W/m2 CLR
00:10 1.1 °F -1.1 °F 1039.8 in Calm     85 % 0.0 in 0.0 W/m2 CLR
00:12 1.1 °F -0.8 °F 1039.8 in Calm     87 % 0.0 in 0.0 W/m2 CLR
00:14 1.1 °F -0.8 °F 1039.8 in Calm     87 % 0.0 in 0.0 W/m2 CLR
00:19 1.1 °F -0.9 °F 1039.8 in Calm     86 % 0.0 in 0.0 W/m2 CLR
00:20 1.1 °F -0.9 °F 1039.8 in Calm     86 % 0.0 in 0.0 W/m2 CLR
00:21 1.1 °F -0.9 °F 1039.8 in Calm     86 % 0.0 in 0.0 W/m2 CLR
00:26 1.1 °F -1.1 °F 1039.8 in Calm     85 % 0.0 in 0.0 W/m2 CLR
00:30 1.1 °F -0.9 °F 1039.8 in Calm     86 % 0.0 in 0.0 W/m2 CLR
00:33 1.1 °F -0.9 °F 1039.8 in Calm     86 % 0.0 in 0.0 W/m2 CLR
00:38 0.6 °F -1.5 °F 1039.5 in Calm     86 % 0.0 in 0.0 W/m2 CLR
00:42 0.6 °F -1.2 °F 1039.5 in Calm     88 % 0.0 in 0.0 W/m2 CLR
00:44 0.6 °F -1.3 °F 1039.5 in Calm     87 % 0.0 in 0.0 W/m2 CLR
00:49 0.6 °F -1.5 °F 1039.5 in Calm     86 % 0.0 in 0.0 W/m2 CLR
00:54 0.0 °F -1.9 °F 1039.5 in Calm     87 % 0.0 in 0.0 W/m2 CLR
00:59 0.0 °F -1.9 °F 1039.5 in Calm     87 % 0.0 in 0.0 W/m2 CLR
01:00 0.0 °F -1.9 °F 1039.5 in Calm     87 % 0.0 in 0.0 W/m2 CLR
01:01 0.0 °F -1.9 °F 1039.2 in Calm     87 % 0.0 in 0.0 W/m2 CLR
01:06 0.0 °F -1.9 °F 1039.2 in Calm     87 % 0.0 in 0.0 W/m2 CLR
01:07 0.0 °F -1.9 °F 1039.2 in Calm     87 % 0.0 in 0.0 W/m2 CLR
01:12 0.0 °F -1.9 °F 1039.2 in Calm     87 % 0.0 in 0.0 W/m2 CLR
01:14 0.0 °F -1.9 °F 1039.2 in Calm     87 % 0.0 in 0.0 W/m2 CLR
01:18 0.0 °F -1.8 °F 1039.2 in Calm     88 % 0.0 in 0.0 W/m2 CLR
01:21 0.0 °F -1.9 °F 1039.2 in Calm     87 % 0.0 in 0.0 W/m2 CLR
01:22 0.6 °F -1.3 °F 1039.2 in Calm     87 % 0.0 in 0.0 W/m2 CLR
01:25 1.1 °F -0.7 °F 1039.2 in Calm     88 % 0.0 in 0.0 W/m2 CLR
01:30 1.1 °F -0.7 °F 1039.2 in Calm     88 % 0.0 in 0.0 W/m2 CLR
01:31 1.1 °F -0.7 °F 1039.2 in Calm     88 % 0.0 in 0.0 W/m2 CLR
01:36 0.6 °F -1.1 °F 1039.2 in Calm     89 % 0.0 in 0.0 W/m2 CLR
01:37 0.6 °F -1.2 °F 1039.2 in Calm     88 % 0.0 in 0.0 W/m2 CLR
01:42 0.6 °F -1.7 °F 1039.2 in WNW 11.1 mph 11.1 mph 85 % 0.0 in 0.0 W/m2 CLR
01:43 0.6 °F -1.8 °F 1039.2 in West 7.4 mph 7.4 mph 84 % 0.0 in 0.0 W/m2 CLR
01:44 0.6 °F -2.0 °F 1039.2 in West 3.7 mph 3.7 mph 83 % 0.0 in 0.0 W/m2 CLR
01:49 0.6 °F -2.8 °F 1039.2 in Calm     78 % 0.0 in 0.0 W/m2 CLR
01:52 0.6 °F -2.8 °F 1039.2 in Calm     78 % 0.0 in 0.0 W/m2 CLR
01:54 0.0 °F -3.1 °F 1039.2 in Calm     80 % 0.0 in 0.0 W/m2 CLR
01:59 0.0 °F -2.9 °F 1039.2 in Calm     81 % 0.0 in 0.0 W/m2 CLR
02:02 0.0 °F -2.7 °F 1039.2 in Calm     82 % 0.0 in 0.0 W/m2 CLR
02:03 0.0 °F -2.7 °F 1039.2 in Calm     82 % 0.0 in 0.0 W/m2 CLR
02:07 0.0 °F -2.6 °F 1039.2 in Calm     83 % 0.0 in 0.0 W/m2 CLR
02:10 0.0 °F -2.4 °F 1039.2 in Calm     84 % 0.0 in 0.0 W/m2 CLR
02:13 0.0 °F -2.2 °F 1039.2 in Calm     85 % 0.0 in 0.0 W/m2 CLR
02:18 -0.6 °F -3.3 °F 1039.2 in Calm     82 % 0.0 in 0.0 W/m2 CLR
02:23 -0.6 °F -3.3 °F 1039.2 in Calm     82 % 0.0 in 0.0 W/m2 CLR
02:24 -0.6 °F -3.3 °F 1039.2 in Calm     82 % 0.0 in 0.0 W/m2 CLR
02:29 -0.6 °F -3.1 °F 1038.8 in Calm     83 % 0.0 in 0.0 W/m2 CLR
02:34 -0.6 °F -3.1 °F 1038.8 in Calm     83 % 0.0 in 0.0 W/m2 CLR
02:39 -0.6 °F -2.8 °F 1038.8 in Calm     85 % 0.0 in 0.0 W/m2 CLR
02:41 -0.6 °F -2.8 °F 1038.8 in Calm     85 % 0.0 in 0.0 W/m2 CLR
02:45 -0.6 °F -2.6 °F 1038.8 in Calm     86 % 0.0 in 0.0 W/m2 CLR
02:46 -0.6 °F -2.6 °F 1038.8 in Calm     86 % 0.0 in 0.0 W/m2 CLR
02:51 -0.6 °F -2.4 °F 1038.8 in Calm     87 % 0.0 in 0.0 W/m2 CLR
02:52 -0.6 °F -2.4 °F 1038.8 in Calm     87 % 0.0 in 0.0 W/m2 CLR
02:57 0.0 °F -1.9 °F 1038.8 in Calm     87 % 0.0 in 0.0 W/m2 CLR
02:58 0.0 °F -2.1 °F 1038.8 in Calm     86 % 0.0 in 0.0 W/m2 CLR
03:01 -0.6 °F -2.8 °F 1038.8 in Calm     85 % 0.0 in 0.0 W/m2 CLR
03:04 -0.6 °F -2.8 °F 1038.8 in Calm     85 % 0.0 in 0.0 W/m2 CLR
03:09 -0.6 °F -2.8 °F 1038.8 in Calm     85 % 0.0 in 0.0 W/m2 CLR
03:10 -0.6 °F -2.8 °F 1038.8 in Calm     85 % 0.0 in 0.0 W/m2 CLR
03:15 -0.6 °F -2.6 °F 1038.8 in Calm     86 % 0.0 in 0.0 W/m2 CLR
03:16 -0.6 °F -2.6 °F 1038.8 in Calm     86 % 0.0 in 0.0 W/m2 CLR
03:18 -0.6 °F -2.4 °F 1038.8 in Calm     87 % 0.0 in 0.0 W/m2 CLR
03:21 -0.6 °F -2.4 °F 1038.8 in Calm     87 % 0.0 in 0.0 W/m2 CLR
03:23 -0.6 °F -2.4 °F 1038.8 in Calm     87 % 0.0 in 0.0 W/m2 CLR
03:26 -0.6 °F -2.4 °F 1038.8 in Calm     87 % 0.0 in 0.0 W/m2 CLR
03:31 -0.6 °F -2.4 °F 1038.8 in Calm     87 % 0.0 in 0.0 W/m2 CLR
03:34 -0.6 °F -2.3 °F 1038.8 in Calm     88 % 0.0 in 0.0 W/m2 CLR
03:36 -0.6 °F -2.3 °F 1038.8 in Calm     88 % 0.0 in 0.0 W/m2 CLR
03:41 -0.6 °F -2.3 °F 1038.5 in Calm     88 % 0.0 in 0.0 W/m2 CLR
03:43 -0.6 °F -2.3 °F 1038.5 in Calm     88 % 0.0 in 0.0 W/m2 CLR
03:48 -0.6 °F -2.4 °F 1038.5 in Calm     87 % 0.0 in 0.0 W/m2 CLR
03:49 -0.6 °F -2.4 °F 1038.5 in Calm     87 % 0.0 in 0.0 W/m2 CLR
03:50 -0.6 °F -2.4 °F 1038.5 in Calm     87 % 0.0 in 0.0 W/m2 CLR
03:55 -0.6 °F -2.3 °F 1038.5 in Calm     88 % 0.0 in 0.0 W/m2 CLR
04:00 -0.6 °F -2.2 °F 1038.5 in WNW 7.4 mph 7.4 mph 89 % 0.0 in 0.0 W/m2 CLR
04:01 -0.6 °F -2.2 °F 1038.5 in WNW 11.1 mph 11.1 mph 89 % 0.0 in 0.0 W/m2 CLR
04:06 -0.6 °F -2.0 °F 1038.5 in West 9.3 mph 9.3 mph 90 % 0.0 in 0.0 W/m2 CLR
04:11 -0.6 °F -2.4 °F 1038.5 in West 5.6 mph 5.6 mph 87 % 0.0 in 0.0 W/m2 CLR
04:12 -0.6 °F -2.4 °F 1038.5 in Calm     87 % 0.0 in 0.0 W/m2 CLR
04:17 -0.6 °F -2.9 °F 1038.5 in Calm     84 % 0.0 in 0.0 W/m2 CLR
04:19 -0.6 °F -3.1 °F 1038.5 in Calm     83 % 0.0 in 0.0 W/m2 CLR
04:22 -0.6 °F -2.9 °F 1038.5 in Calm     84 % 0.0 in 0.0 W/m2 CLR
04:25 -1.1 °F -3.3 °F 1038.5 in Calm     85 % 0.0 in 0.0 W/m2 CLR
04:28 -1.1 °F -3.2 °F 1038.5 in Calm     86 % 0.0 in 0.0 W/m2 CLR
04:31 -1.1 °F -3.2 °F 1038.5 in Calm     86 % 0.0 in 0.0 W/m2 CLR
04:34 -1.1 °F -3.3 °F 1038.1 in Calm     85 % 0.0 in 0.0 W/m2 CLR
04:36 -1.1 °F -3.3 °F 1038.1 in Calm     85 % 0.0 in 0.0 W/m2 CLR
04:41 -1.1 °F -3.3 °F 1038.1 in Calm     85 % 0.0 in 0.0 W/m2 CLR
04:43 -1.1 °F -3.2 °F 1038.5 in Calm     86 % 0.0 in 0.0 W/m2 CLR
04:47 -1.1 °F -3.2 °F 1038.5 in Calm     86 % 0.0 in 0.0 W/m2 CLR
04:52 -1.1 °F -3.2 °F 1038.1 in Calm     86 % 0.0 in 0.0 W/m2 CLR
04:55 -1.1 °F -3.2 °F 1038.1 in Calm     86 % 0.0 in 0.0 W/m2 CLR
04:56 -1.1 °F -3.2 °F 1038.1 in Calm     86 % 0.0 in 0.0 W/m2 CLR
05:00 -0.6 °F -2.6 °F 1038.1 in Calm     86 % 0.0 in 0.0 W/m2 CLR
05:01 -0.6 °F -2.4 °F 1038.1 in Calm     87 % 0.0 in 0.0 W/m2 CLR
05:06 -0.6 °F -2.6 °F 1038.1 in Calm     86 % 0.0 in 0.0 W/m2 CLR
05:11 -0.6 °F -2.6 °F 1037.8 in Calm     86 % 0.0 in 0.0 W/m2 CLR
05:12 -0.6 °F -2.6 °F 1037.8 in Calm     86 % 0.0 in 0.0 W/m2 CLR
05:16 -0.6 °F -2.6 °F 1037.8 in Calm     86 % 0.0 in 0.0 W/m2 CLR
05:17 -0.6 °F -2.6 °F 1037.8 in Calm     86 % 0.0 in 0.0 W/m2 CLR
05:22 -0.6 °F -2.4 °F 1037.8 in Calm     87 % 0.0 in 0.0 W/m2 CLR
05:27 -0.6 °F -2.6 °F 1037.5 in Calm     86 % 0.0 in 0.0 W/m2 CLR
05:28 -0.6 °F -2.6 °F 1037.5 in Calm     86 % 0.0 in 0.0 W/m2 CLR
05:33 -0.6 °F -2.4 °F 1037.5 in Calm     87 % 0.0 in 0.0 W/m2 CLR
05:38 -0.6 °F -2.3 °F 1037.5 in Calm     88 % 0.0 in 0.0 W/m2 CLR
05:40 -0.6 °F -2.3 °F 1037.5 in Calm     88 % 0.0 in 0.0 W/m2 CLR
05:45 -0.6 °F -2.3 °F 1037.5 in Calm     88 % 0.0 in 0.0 W/m2 CLR
05:47 -0.6 °F -2.3 °F 1037.5 in Calm     88 % 0.0 in 0.0 W/m2 CLR
05:52 -1.1 °F -2.8 °F 1037.5 in Calm     88 % 0.0 in 0.0 W/m2 CLR
05:57 -0.6 °F -2.3 °F 1037.5 in Calm     88 % 0.0 in 0.0 W/m2 CLR
06:02 -0.6 °F -2.3 °F 1037.5 in Calm     88 % 0.0 in 0.0 W/m2 CLR
06:06 -0.6 °F -2.3 °F 1037.5 in WNW 9.3 mph 9.3 mph 88 % 0.0 in 0.0 W/m2 CLR
06:08 -0.6 °F -2.2 °F 1037.5 in West 13.0 mph 13.0 mph 89 % 0.0 in 0.0 W/m2 CLR
06:12 0.0 °F -1.6 °F 1037.5 in WNW 7.4 mph 7.4 mph 89 % 0.0 in 0.0 W/m2 CLR
06:16 0.0 °F -2.1 °F 1037.5 in WNW 5.6 mph 5.6 mph 86 % 0.0 in 0.0 W/m2 CLR
06:21 -0.6 °F -3.1 °F 1037.5 in Calm     83 % 0.0 in 0.0 W/m2 CLR
06:23 -0.6 °F -3.4 °F 1037.5 in Calm     81 % 0.0 in 0.0 W/m2 CLR
06:28 -0.6 °F -3.4 °F 1037.5 in Calm     81 % 0.0 in 0.0 W/m2 CLR
06:30 -0.6 °F -3.3 °F 1037.5 in Calm     82 % 0.0 in 0.0 W/m2 CLR
06:34 -0.6 °F -2.9 °F 1037.5 in Calm     84 % 0.0 in 0.0 W/m2 CLR
06:38 -1.1 °F -3.3 °F 1037.5 in Calm     85 % 0.0 in 0.0 W/m2 CLR
06:39 -0.6 °F -2.8 °F 1037.5 in Calm     85 % 0.0 in 0.0 W/m2 CLR
06:44 -0.6 °F -2.6 °F 1037.5 in Calm     86 % 0.0 in 0.0 W/m2 CLR
06:45 -0.6 °F -2.6 °F 1037.5 in Calm     86 % 0.0 in 0.0 W/m2 CLR
06:50 -1.1 °F -3.0 °F 1037.5 in Calm     87 % 0.0 in 0.0 W/m2 CLR
06:51 -0.6 °F -2.4 °F 1037.5 in Calm     87 % 0.0 in 0.0 W/m2 CLR
06:56 -0.6 °F -2.6 °F 1037.5 in Calm     86 % 0.0 in 0.0 W/m2 CLR
07:00 -0.6 °F -2.6 °F 1037.5 in Calm     86 % 0.0 in 0.0 W/m2 CLR
07:02 -0.6 °F -2.6 °F 1037.5 in Calm     86 % 0.0 in 0.0 W/m2 CLR
07:07 -0.6 °F -2.8 °F 1037.5 in Calm     85 % 0.0 in 0.0 W/m2 CLR
07:08 -0.6 °F -2.8 °F 1037.5 in Calm     85 % 0.0 in 0.0 W/m2 CLR
07:13 -1.1 °F -3.3 °F 1037.8 in Calm     85 % 0.0 in 0.0 W/m2 CLR
07:14 -0.6 °F -2.8 °F 1037.8 in Calm     85 % 0.0 in 0.0 W/m2 CLR
07:15 -1.1 °F -3.3 °F 1037.5 in Calm     85 % 0.0 in 0.0 W/m2 CLR
07:20 -0.6 °F -2.6 °F 1037.8 in Calm     86 % 0.0 in 0.0 W/m2 CLR
07:21 -0.6 °F -2.6 °F 1037.8 in Calm     86 % 0.0 in 0.0 W/m2 CLR
07:22 -0.6 °F -2.4 °F 1037.5 in Calm     87 % 0.0 in 0.0 W/m2 CLR
07:26 -0.6 °F -2.3 °F 1037.5 in Calm     88 % 0.0 in 0.0 W/m2 CLR
07:27 -0.6 °F -2.3 °F 1037.8 in Calm     88 % 0.0 in 0.0 W/m2 CLR
07:31 -0.6 °F -2.3 °F 1037.8 in Calm     88 % 0.0 in 0.0 W/m2 CLR
07:35 -0.6 °F -2.3 °F 1037.8 in Calm     88 % 0.0 in 0.0 W/m2 CLR
07:36 -0.6 °F -2.3 °F 1037.8 in Calm     88 % 0.0 in 0.0 W/m2 CLR
07:40 -0.6 °F -2.4 °F 1037.8 in Calm     87 % 0.0 in 0.0 W/m2 CLR
07:41 -0.6 °F -2.4 °F 1037.8 in Calm     87 % 0.0 in 0.0 W/m2 CLR
07:46 -0.6 °F -2.3 °F 1037.8 in Calm     88 % 0.0 in 0.0 W/m2 CLR
07:48 -0.6 °F -2.3 °F 1037.8 in Calm     88 % 0.0 in 0.0 W/m2 CLR
07:51 -0.6 °F -2.2 °F 1037.8 in Calm     89 % 0.0 in 0.0 W/m2 CLR
07:56 -0.6 °F -2.2 °F 1037.8 in Calm     89 % 0.0 in 0.0 W/m2 CLR
07:57 -0.6 °F -2.2 °F 1037.8 in Calm     89 % 0.0 in 0.0 W/m2 CLR
08:02 -1.1 °F -2.8 °F 1037.8 in Calm     88 % 0.0 in 0.0 W/m2 CLR
08:07 -1.1 °F -2.7 °F 1037.8 in Calm     89 % 0.0 in 0.0 W/m2 CLR
08:08 -1.1 °F -2.7 °F 1037.8 in Calm     89 % 0.0 in 0.0 W/m2 CLR
08:10 -1.1 °F -2.6 °F 1037.8 in Calm     90 % 0.0 in 0.0 W/m2 CLR
08:13 -1.1 °F -2.6 °F 1037.8 in Calm     90 % 0.0 in 0.0 W/m2 OVC
08:18 -1.1 °F -2.7 °F 1037.8 in Calm     89 % 0.0 in 5.0 W/m2 OVC
08:19 -1.1 °F -2.7 °F 1037.8 in Calm     89 % 0.0 in 5.0 W/m2 OVC
08:24 -1.1 °F -2.7 °F 1037.8 in Calm     89 % 0.0 in 7.0 W/m2 BKN
08:26 -1.1 °F -2.7 °F 1037.8 in Calm     89 % 0.0 in 9.0 W/m2 BKN
08:30 -1.1 °F -2.7 °F 1037.8 in Calm     89 % 0.0 in 11.0 W/m2 BKN
08:35 -1.1 °F -2.6 °F 1037.8 in Calm     90 % 0.0 in 14.0 W/m2 BKN
08:40 -1.1 °F -2.7 °F 1038.1 in Calm     89 % 0.0 in 21.0 W/m2 BKN
08:41 -1.1 °F -2.7 °F 1038.1 in Calm     89 % 0.0 in 21.0 W/m2 BKN
08:42 -1.1 °F -2.8 °F 1038.1 in Calm     88 % 0.0 in 21.0 W/m2 BKN
08:47 -1.1 °F -3.0 °F 1038.1 in Calm     87 % 0.0 in 26.0 W/m2 BKN
08:49 -1.1 °F -3.0 °F 1038.1 in Calm     87 % 0.0 in 26.0 W/m2 BKN
08:54 -1.1 °F -2.8 °F 1038.1 in Calm     88 % 0.0 in 35.0 W/m2 BKN
08:55 -1.1 °F -2.8 °F 1038.1 in Calm     88 % 0.0 in 37.0 W/m2 BKN
08:58 -1.1 °F -2.8 °F 1038.1 in Calm     88 % 0.0 in 40.0 W/m2 BKN
09:02 -0.6 °F -2.6 °F 1038.1 in Calm     86 % 0.0 in 54.0 W/m2 SCT
09:03 -0.6 °F -2.8 °F 1038.1 in Calm     85 % 0.0 in 56.0 W/m2 SCT
09:07 -0.6 °F -3.1 °F 1038.1 in Calm     83 % 0.0 in 63.0 W/m2 SCT
09:12 -0.6 °F -3.1 °F 1038.1 in Calm     83 % 0.0 in 76.0 W/m2 FEW
09:17 0.0 °F -2.6 °F 1037.8 in Calm     83 % 0.0 in 86.0 W/m2 CLR
09:20 0.0 °F -2.6 °F 1038.1 in Calm     83 % 0.0 in 81.0 W/m2 FEW
09:25 0.0 °F -2.6 °F 1038.1 in Calm     83 % 0.0 in 118.0 W/m2 CLR
09:26 0.0 °F -2.6 °F 1038.1 in Calm     83 % 0.0 in 116.0 W/m2 CLR
09:31 0.6 °F -1.8 °F 1038.1 in Calm     84 % 0.0 in 130.0 W/m2 CLR
09:32 0.6 °F -2.0 °F 1038.1 in Calm     83 % 0.0 in 130.0 W/m2 CLR
09:37 0.6 °F -2.2 °F 1038.1 in Calm     82 % 0.0 in 169.0 W/m2 CLR
09:38 0.6 °F -2.2 °F 1038.1 in Calm     82 % 0.0 in 169.0 W/m2 CLR
09:43 1.7 °F -1.1 °F 1038.1 in Calm     82 % 0.0 in 172.0 W/m2 CLR
09:44 1.7 °F -1.1 °F 1038.1 in Calm     82 % 0.0 in 171.0 W/m2 CLR
09:47 2.2 °F -0.7 °F 1038.1 in Calm     81 % 0.0 in 174.0 W/m2 CLR
09:49 2.2 °F -0.9 °F 1038.1 in Calm     80 % 0.0 in 181.0 W/m2 CLR
09:54 2.8 °F -0.5 °F 1038.1 in Calm     79 % 0.0 in 186.0 W/m2 CLR
09:55 2.8 °F -0.5 °F 1038.1 in Calm     79 % 0.0 in 193.0 W/m2 CLR
10:00 3.3 °F 0.1 °F 1038.1 in Calm     79 % 0.0 in 142.0 W/m2 CLR
10:01 3.3 °F 0.1 °F 1038.1 in Calm     79 % 0.0 in 149.0 W/m2 CLR
10:04 3.9 °F 0.4 °F 1038.1 in Calm     78 % 0.0 in 181.0 W/m2 CLR
10:09 3.9 °F -0.2 °F 1038.5 in WNW 9.3 mph 9.3 mph 75 % 0.0 in 202.0 W/m2 CLR
10:14 4.4 °F -0.9 °F 1038.1 in NW 20.4 mph 20.4 mph 68 % 0.0 in 204.0 W/m2 CLR
10:15 4.4 °F -0.9 °F 1038.1 in NW 20.4 mph 20.4 mph 68 % 0.0 in 204.0 W/m2 CLR
10:19 5.6 °F -0.5 °F 1038.5 in NW 18.5 mph 18.5 mph 65 % 0.0 in 214.0 W/m2 CLR
10:22 6.7 °F 0.6 °F 1038.5 in NNW 14.8 mph 14.8 mph 65 % 0.0 in 246.0 W/m2 CLR
10:27 8.9 °F 2.2 °F 1038.5 in WNW 14.8 mph 14.8 mph 63 % 0.0 in 197.0 W/m2 CLR
10:29 9.4 °F 2.7 °F 1038.5 in NW 14.8 mph 14.8 mph 63 % 0.0 in 213.0 W/m2 CLR
10:34 10.0 °F 3.1 °F 1038.5 in WNW 14.5 mph 14.5 mph 62 % 0.0 in 237.0 W/m2 CLR
10:35 10.0 °F 2.6 °F 1038.5 in WNW 19.3 mph 19.3 mph 60 % 0.0 in 237.0 W/m2 CLR
10:39 10.6 °F 3.3 °F 1038.5 in North 22.2 mph 22.2 mph 61 % 0.0 in 197.0 W/m2 CLR
10:44 10.6 °F 3.3 °F 1038.5 in NW 18.5 mph 18.5 mph 61 % 0.0 in 221.0 W/m2 CLR
10:49 10.6 °F 3.3 °F 1038.5 in NW 24.1 mph 24.1 mph 61 % 0.0 in 232.0 W/m2 CLR
10:50 10.6 °F 3.3 °F 1038.5 in NW 24.1 mph 24.1 mph 61 % 0.0 in 232.0 W/m2 CLR
10:55 10.6 °F 3.6 °F 1038.5 in NW 29.6 mph 29.6 mph 62 % 0.0 in 271.0 W/m2 CLR
10:56 10.6 °F 3.6 °F 1038.5 in NNW 24.1 mph 24.1 mph 62 % 0.0 in 299.0 W/m2 CLR
10:57 11.1 °F 4.1 °F 1038.5 in NW 31.5 mph 31.5 mph 62 % 0.0 in 308.0 W/m2 CLR
11:02 11.1 °F 4.1 °F 1038.5 in NNW 31.5 mph 31.5 mph 62 % 0.0 in 253.0 W/m2 CLR
11:06 11.1 °F 4.1 °F 1038.8 in NNW 18.5 mph 18.5 mph 62 % 0.0 in 223.0 W/m2 CLR
11:08 11.1 °F 4.1 °F 1038.8 in WNW 18.5 mph 18.5 mph 62 % 0.0 in 232.0 W/m2 CLR
11:13 11.1 °F 3.9 °F 1038.8 in NNW 31.5 mph 31.5 mph 61 % 0.0 in 283.0 W/m2 CLR
11:14 11.1 °F 3.9 °F 1038.8 in NNW 25.9 mph 25.9 mph 61 % 0.0 in 229.0 W/m2 CLR
11:19 11.1 °F 3.6 °F 1038.8 in NNW 24.1 mph 24.1 mph 60 % 0.0 in 265.0 W/m2 CLR
11:20 11.1 °F 3.6 °F 1038.5 in NW 24.1 mph 24.1 mph 60 % 0.0 in 287.0 W/m2 CLR
11:25 11.7 °F 4.2 °F 1038.5 in NNW 16.7 mph 16.7 mph 60 % 0.0 in 327.0 W/m2 CLR
11:26 11.7 °F 3.9 °F 1038.5 in NNW 16.7 mph 16.7 mph 59 % 0.0 in 327.0 W/m2 CLR
11:31 11.7 °F 3.9 °F 1038.5 in NW 24.1 mph 24.1 mph 59 % 0.0 in 313.0 W/m2 CLR
11:36 11.7 °F 3.9 °F 1038.5 in NW 18.5 mph 18.5 mph 59 % 0.0 in 369.0 W/m2 CLR
11:39 11.7 °F 3.7 °F 1038.5 in NNW 18.5 mph 18.5 mph 58 % 0.0 in 360.0 W/m2 CLR
11:44 12.2 °F 3.9 °F 1038.5 in NNW 22.2 mph 22.2 mph 57 % 0.0 in 408.0 W/m2 CLR
11:45 12.2 °F 4.2 °F 1038.5 in NNW 16.7 mph 16.7 mph 58 % 0.0 in 417.0 W/m2 CLR
11:50 12.2 °F 4.2 °F 1038.5 in NNW 31.5 mph 31.5 mph 58 % 0.0 in 348.0 W/m2 CLR
11:51 12.2 °F 4.4 °F 1038.5 in NW 31.5 mph 31.5 mph 59 % 0.0 in 346.0 W/m2 CLR
11:56 12.2 °F 4.4 °F 1038.1 in NW 35.2 mph 35.2 mph 59 % 0.0 in 339.0 W/m2 CLR
11:59 12.2 °F 4.7 °F 1038.1 in NNW 29.6 mph 29.6 mph 60 % 0.0 in 302.0 W/m2 CLR
12:04 12.2 °F 4.7 °F 1038.1 in North 25.9 mph 25.9 mph 60 % 0.0 in 276.0 W/m2 CLR
12:08 12.2 °F 4.9 °F 1038.1 in NW 27.8 mph 27.8 mph 61 % 0.0 in 350.0 W/m2 CLR
12:09 12.2 °F 4.9 °F 1038.1 in WNW 20.4 mph 20.4 mph 61 % 0.0 in 399.0 W/m2 CLR
12:14 12.8 °F 5.2 °F 1038.1 in NNW 27.4 mph 27.4 mph 60 % 0.0 in 394.0 W/m2 CLR
12:15 12.8 °F 5.2 °F 1038.1 in NNW 24.1 mph 24.1 mph 60 % 0.0 in 394.0 W/m2 CLR
12:20 12.8 °F 5.2 °F 1037.8 in NNW 25.9 mph 25.9 mph 60 % 0.0 in 380.0 W/m2 CLR
12:21 12.8 °F 4.9 °F 1037.8 in NNW 22.5 mph 22.5 mph 59 % 0.0 in 410.0 W/m2 CLR
12:26 12.8 °F 4.9 °F 1037.8 in NNW 27.8 mph 27.8 mph 59 % 0.0 in 404.0 W/m2 CLR
12:27 13.3 °F 5.2 °F 1037.8 in NNW 22.2 mph 22.2 mph 58 % 0.0 in 411.0 W/m2 CLR
12:32 13.3 °F 5.5 °F 1037.8 in NW 31.5 mph 31.5 mph 59 % 0.0 in 325.0 W/m2 CLR
12:33 13.3 °F 5.5 °F 1037.8 in NNW 31.5 mph 31.5 mph 59 % 0.0 in 325.0 W/m2 CLR
12:38 13.3 °F 5.5 °F 1037.8 in NW 35.2 mph 35.2 mph 59 % 0.0 in 302.0 W/m2 CLR
12:40 12.8 °F 5.2 °F 1037.8 in NW 31.5 mph 31.5 mph 60 % 0.0 in 318.0 W/m2 CLR
12:41 12.8 °F 5.2 °F 1037.8 in WNW 20.9 mph 20.9 mph 60 % 0.0 in 290.0 W/m2 CLR
12:45 12.8 °F 5.2 °F 1037.8 in NW 18.5 mph 18.5 mph 60 % 0.0 in 285.0 W/m2 CLR
12:47 12.8 °F 5.2 °F 1037.8 in NW 18.5 mph 18.5 mph 60 % 0.0 in 287.0 W/m2 CLR
12:52 12.8 °F 5.2 °F 1037.5 in NW 24.1 mph 24.1 mph 60 % 0.0 in 311.0 W/m2 CLR
12:56 12.8 °F 5.4 °F 1037.5 in NW 27.8 mph 27.8 mph 61 % 0.0 in 269.0 W/m2 CLR
12:57 12.8 °F 5.4 °F 1037.5 in WNW 25.9 mph 25.9 mph 61 % 0.0 in 260.0 W/m2 CLR
13:02 12.8 °F 5.4 °F 1037.5 in NNW 18.5 mph 18.5 mph 61 % 0.0 in 255.0 W/m2 CLR
13:04 12.8 °F 5.4 °F 1037.5 in North 20.4 mph 20.4 mph 61 % 0.0 in 248.0 W/m2 CLR
13:07 12.8 °F 5.4 °F 1037.5 in NNW 24.1 mph 24.1 mph 61 % 0.0 in 237.0 W/m2 CLR
13:12 12.8 °F 5.7 °F 1037.5 in NW 18.5 mph 18.5 mph 62 % 0.0 in 221.0 W/m2 CLR
13:16 12.2 °F 5.2 °F 1037.5 in NNW 25.9 mph 25.9 mph 62 % 0.0 in 204.0 W/m2 CLR
13:18 12.2 °F 5.2 °F 1037.5 in WNW 18.5 mph 18.5 mph 62 % 0.0 in 200.0 W/m2 CLR
13:23 12.2 °F 5.2 °F 1037.5 in NNW 14.8 mph 14.8 mph 62 % 0.0 in 232.0 W/m2 CLR
13:24 12.2 °F 5.2 °F 1037.5 in NNW 19.3 mph 19.3 mph 62 % 0.0 in 220.0 W/m2 CLR
13:28 12.8 °F 5.7 °F 1037.5 in North 24.1 mph 24.1 mph 62 % 0.0 in 225.0 W/m2 CLR
13:31 12.8 °F 5.9 °F 1037.1 in NNW 18.5 mph 18.5 mph 63 % 0.0 in 246.0 W/m2 CLR
13:33 12.8 °F 5.9 °F 1037.5 in NW 16.1 mph 16.1 mph 63 % 0.0 in 250.0 W/m2 CLR
13:39 12.8 °F 5.7 °F 1037.1 in NNW 20.4 mph 20.4 mph 62 % 0.0 in 374.0 W/m2 CLR
13:40 12.8 °F 5.7 °F 1037.1 in NNW 20.4 mph 20.4 mph 62 % 0.0 in 376.0 W/m2 CLR
13:45 12.8 °F 5.7 °F 1037.1 in NNW 18.5 mph 18.5 mph 62 % 0.0 in 376.0 W/m2 CLR
13:51 13.3 °F 5.9 °F 1037.1 in North 19.3 mph 19.3 mph 61 % 0.0 in 373.0 W/m2 CLR
13:56 13.3 °F 5.9 °F 1036.8 in North 18.5 mph 18.5 mph 61 % 0.0 in 359.0 W/m2 CLR
13:57 12.8 °F 5.4 °F 1036.8 in North 20.9 mph 20.9 mph 61 % 0.0 in 385.0 W/m2 CLR
14:02 13.3 °F 5.7 °F 1036.8 in North 17.7 mph 17.7 mph 60 % 0.0 in 466.0 W/m2 CLR
14:05 13.3 °F 5.9 °F 1036.8 in North 22.2 mph 22.2 mph 61 % 0.0 in 480.0 W/m2 CLR
14:10 13.3 °F 5.7 °F 1036.8 in NNW 18.5 mph 18.5 mph 60 % 0.0 in 364.0 W/m2 CLR
14:13 13.3 °F 5.7 °F 1036.8 in NW 18.5 mph 18.5 mph 60 % 0.0 in 454.0 W/m2 CLR
14:16 13.3 °F 5.7 °F 1036.8 in NW 16.7 mph 16.7 mph 60 % 0.0 in 439.0 W/m2 CLR
14:21 13.3 °F 5.5 °F 1036.5 in NW 18.5 mph 18.5 mph 59 % 0.0 in 295.0 W/m2 CLR
14:23 13.3 °F 5.7 °F 1036.5 in NW 18.5 mph 18.5 mph 60 % 0.0 in 339.0 W/m2 CLR
14:28 13.3 °F 5.5 °F 1036.5 in NW 20.4 mph 20.4 mph 59 % 0.0 in 376.0 W/m2 CLR
14:29 13.3 °F 5.7 °F 1036.5 in NW 20.9 mph 20.9 mph 60 % 0.0 in 376.0 W/m2 CLR
14:33 13.3 °F 5.7 °F 1036.5 in NNW 22.2 mph 22.2 mph 60 % 0.0 in 345.0 W/m2 CLR
14:35 13.3 °F 5.5 °F 1036.5 in NW 22.2 mph 22.2 mph 59 % 0.0 in 248.0 W/m2 CLR
14:40 13.3 °F 5.7 °F 1036.5 in NNW 22.5 mph 22.5 mph 60 % 0.0 in 380.0 W/m2 CLR
14:41 13.3 °F 5.7 °F 1036.5 in WNW 22.2 mph 22.2 mph 60 % 0.0 in 378.0 W/m2 CLR
14:46 13.3 °F 5.5 °F 1036.5 in NW 18.5 mph 18.5 mph 59 % 0.0 in 359.0 W/m2 CLR
14:48 13.3 °F 5.5 °F 1036.5 in NW 18.5 mph 18.5 mph 59 % 0.0 in 334.0 W/m2 CLR
14:49 13.3 °F 5.5 °F 1036.5 in North 20.9 mph 20.9 mph 59 % 0.0 in 334.0 W/m2 CLR
14:54 13.3 °F 5.5 °F 1036.1 in NNW 14.8 mph 14.8 mph 59 % 0.0 in 250.0 W/m2 CLR
14:55 13.3 °F 5.5 °F 1036.1 in NW 16.1 mph 16.1 mph 59 % 0.0 in 258.0 W/m2 CLR
15:00 13.3 °F 5.5 °F 1036.1 in NW 13.0 mph 13.0 mph 59 % 0.0 in 197.0 W/m2 CLR
15:01 13.3 °F 5.5 °F 1036.1 in NNW 14.8 mph 14.8 mph 59 % 0.0 in 141.0 W/m2 CLR
15:04 13.3 °F 5.5 °F 1036.1 in NW 18.5 mph 18.5 mph 59 % 0.0 in 118.0 W/m2 CLR
15:09 12.8 °F 5.2 °F 1036.1 in NW 18.5 mph 18.5 mph 60 % 0.0 in 239.0 W/m2 CLR
15:10 12.8 °F 5.2 °F 1036.1 in NW 18.5 mph 18.5 mph 60 % 0.0 in 265.0 W/m2 CLR
15:15 13.3 °F 5.7 °F 1036.1 in WNW 27.8 mph 27.8 mph 60 % 0.0 in 294.0 W/m2 CLR
15:21 13.3 °F 5.7 °F 1036.1 in NW 24.1 mph 24.1 mph 60 % 0.0 in 281.0 W/m2 CLR
15:23 13.3 °F 5.7 °F 1036.1 in NW 18.5 mph 18.5 mph 60 % 0.0 in 279.0 W/m2 CLR
15:26 13.3 °F 5.7 °F 1036.1 in NW 24.1 mph 24.1 mph 60 % 0.0 in 269.0 W/m2 CLR
15:30 13.3 °F 5.7 °F 1036.1 in NW 20.4 mph 20.4 mph 60 % 0.0 in 264.0 W/m2 CLR
15:31 13.3 °F 5.7 °F 1036.1 in WNW 18.5 mph 18.5 mph 60 % 0.0 in 264.0 W/m2 CLR
15:36 12.8 °F 5.2 °F 1036.1 in WNW 24.1 mph 24.1 mph 60 % 0.0 in 192.0 W/m2 CLR
15:38 12.8 °F 5.2 °F 1036.1 in NW 18.5 mph 18.5 mph 60 % 0.0 in 137.0 W/m2 CLR
15:39 12.8 °F 5.4 °F 1036.1 in WNW 18.5 mph 18.5 mph 61 % 0.0 in 127.0 W/m2 CLR
15:43 12.8 °F 5.4 °F 1036.1 in NW 18.5 mph 18.5 mph 61 % 0.0 in 221.0 W/m2 CLR
15:47 12.8 °F 5.4 °F 1036.1 in NNW 22.5 mph 22.5 mph 61 % 0.0 in 123.0 W/m2 CLR
15:49 12.8 °F 5.4 °F 1036.1 in NNW 22.2 mph 22.2 mph 61 % 0.0 in 158.0 W/m2 CLR
15:54 12.8 °F 5.7 °F 1036.1 in NNW 20.9 mph 20.9 mph 62 % 0.0 in 200.0 W/m2 CLR
15:57 12.8 °F 5.7 °F 1036.1 in NNW 18.5 mph 18.5 mph 62 % 0.0 in 192.0 W/m2 CLR
16:00 12.2 °F 5.2 °F 1036.1 in NNW 17.7 mph 17.7 mph 62 % 0.0 in 197.0 W/m2 CLR
16:05 12.2 °F 5.2 °F 1036.1 in NW 18.5 mph 18.5 mph 62 % 0.0 in 181.0 W/m2 CLR
16:10 12.2 °F 5.2 °F 1036.1 in NW 17.7 mph 17.7 mph 62 % 0.0 in 163.0 W/m2 CLR
16:11 12.2 °F 5.2 °F 1036.1 in NW 18.5 mph 18.5 mph 62 % 0.0 in 155.0 W/m2 CLR
16:16 12.2 °F 5.2 °F 1036.1 in NW 19.3 mph 19.3 mph 62 % 0.0 in 113.0 W/m2 CLR
16:18 12.2 °F 5.2 °F 1036.1 in NNW 24.1 mph 24.1 mph 62 % 0.0 in 125.0 W/m2 CLR
16:23 12.2 °F 5.4 °F 1036.1 in North 25.9 mph 25.9 mph 63 % 0.0 in 111.0 W/m2 CLR
16:27 11.7 °F 4.8 °F 1036.1 in NW 24.1 mph 24.1 mph 63 % 0.0 in 60.0 W/m2 CLR
16:29 11.7 °F 4.8 °F 1036.1 in NW 22.2 mph 22.2 mph 63 % 0.0 in 58.0 W/m2 CLR
16:34 11.7 °F 5.1 °F 1036.1 in WNW 18.5 mph 18.5 mph 64 % 0.0 in 86.0 W/m2 CLR
16:39 11.7 °F 5.3 °F 1036.1 in NW 18.5 mph 18.5 mph 65 % 0.0 in 100.0 W/m2 CLR
16:41 11.7 °F 5.1 °F 1036.1 in WNW 16.7 mph 16.7 mph 64 % 0.0 in 83.0 W/m2 FEW
16:46 11.7 °F 5.1 °F 1036.1 in NW 14.8 mph 14.8 mph 64 % 0.0 in 51.0 W/m2 SCT
16:47 11.7 °F 5.1 °F 1036.1 in NNW 14.8 mph 14.8 mph 64 % 0.0 in 44.0 W/m2 SCT
16:52 11.7 °F 5.3 °F 1036.1 in NW 14.8 mph 14.8 mph 65 % 0.0 in 60.0 W/m2 SCT
16:57 11.1 °F 4.8 °F 1036.1 in NW 11.3 mph 11.3 mph 65 % 0.0 in 56.0 W/m2 SCT
16:58 11.1 °F 4.8 °F 1036.1 in NNW 13.0 mph 13.0 mph 65 % 0.0 in 53.0 W/m2 SCT
17:02 11.1 °F 4.8 °F 1036.1 in WNW 14.8 mph 14.8 mph 65 % 0.0 in 47.0 W/m2 SCT
17:03 11.1 °F 4.8 °F 1036.1 in NW 13.0 mph 13.0 mph 65 % 0.0 in 44.0 W/m2 SCT
17:08 11.1 °F 4.8 °F 1036.1 in NW 18.5 mph 18.5 mph 65 % 0.0 in 35.0 W/m2 BKN
17:10 11.1 °F 4.8 °F 1036.1 in NW 13.0 mph 13.0 mph 65 % 0.0 in 30.0 W/m2 BKN
17:12 11.1 °F 4.8 °F 1036.1 in NNW 11.1 mph 11.1 mph 65 % 0.0 in 28.0 W/m2 BKN
17:16 11.1 °F 5.0 °F 1036.1 in NW 16.7 mph 16.7 mph 66 % 0.0 in 23.0 W/m2 BKN
17:20 11.1 °F 5.0 °F 1036.5 in NNW 18.5 mph 18.5 mph 66 % 0.0 in 19.0 W/m2 BKN
17:22 11.1 °F 5.0 °F 1036.5 in NNW 7.4 mph 7.4 mph 66 % 0.0 in 18.0 W/m2 BKN
17:27 11.1 °F 5.2 °F 1036.5 in NW 9.3 mph 9.3 mph 67 % 0.0 in 14.0 W/m2 BKN
17:28 11.1 °F 5.2 °F 1036.5 in NW 9.7 mph 9.7 mph 67 % 0.0 in 12.0 W/m2 BKN
17:29 10.6 °F 4.7 °F 1036.5 in WNW 9.3 mph 9.3 mph 67 % 0.0 in 12.0 W/m2 BKN
17:33 10.6 °F 4.7 °F 1036.5 in NW 11.1 mph 11.1 mph 67 % 0.0 in 9.0 W/m2 BKN
17:38 10.0 °F 4.2 °F 1036.5 in NW 8.0 mph 8.0 mph 67 % 0.0 in 5.0 W/m2 OVC
17:40 10.0 °F 4.2 °F 1036.5 in WNW 11.1 mph 11.1 mph 67 % 0.0 in 5.0 W/m2 OVC
17:45 9.4 °F 3.6 °F 1036.5 in NW 8.0 mph 8.0 mph 67 % 0.0 in 0.0 W/m2 CLR
17:46 9.4 °F 3.8 °F 1036.5 in NW 9.7 mph 9.7 mph 68 % 0.0 in 0.0 W/m2 CLR
17:47 9.4 °F 3.8 °F 1036.5 in NW 9.3 mph 9.3 mph 68 % 0.0 in 0.0 W/m2 CLR
17:51 8.9 °F 3.3 °F 1036.5 in Calm     68 % 0.0 in 0.0 W/m2 CLR
17:56 8.3 °F 2.8 °F 1036.5 in Calm     68 % 0.0 in 0.0 W/m2 CLR
17:57 7.8 °F 2.2 °F 1036.5 in Calm     68 % 0.0 in 0.0 W/m2 CLR
17:59 7.8 °F 2.2 °F 1036.5 in Calm     68 % 0.0 in 0.0 W/m2 CLR
18:03 7.2 °F 1.7 °F 1036.5 in Calm     68 % 0.0 in 0.0 W/m2 CLR
18:05 7.2 °F 1.7 °F 1036.8 in Calm     68 % 0.0 in 0.0 W/m2 CLR
18:08 6.7 °F 1.2 °F 1036.8 in Calm     68 % 0.0 in 0.0 W/m2 CLR
18:11 6.7 °F 1.4 °F 1036.8 in Calm     69 % 0.0 in 0.0 W/m2 CLR
18:13 6.7 °F 1.4 °F 1036.8 in Calm     69 % 0.0 in 0.0 W/m2 CLR
18:16 6.1 °F 0.8 °F 1036.8 in Calm     69 % 0.0 in 0.0 W/m2 CLR
18:19 6.1 °F 0.8 °F 1036.8 in Calm     69 % 0.0 in 0.0 W/m2 CLR
18:24 5.6 °F 0.3 °F 1036.8 in Calm     69 % 0.0 in 0.0 W/m2 CLR
18:25 5.6 °F 0.3 °F 1036.8 in Calm     69 % 0.0 in 0.0 W/m2 CLR
18:30 5.6 °F 0.7 °F 1036.8 in Calm     71 % 0.0 in 0.0 W/m2 CLR
18:31 5.6 °F 0.7 °F 1036.8 in Calm     71 % 0.0 in 0.0 W/m2 CLR
18:36 5.0 °F 0.2 °F 1036.8 in Calm     71 % 0.0 in 0.0 W/m2 CLR
18:37 5.0 °F 0.2 °F 1036.8 in Calm     71 % 0.0 in 0.0 W/m2 CLR
18:42 5.0 °F 0.4 °F 1036.8 in Calm     72 % 0.0 in 0.0 W/m2 CLR
18:47 4.4 °F 0.0 °F 1036.8 in Calm     73 % 0.0 in 0.0 W/m2 CLR
18:48 4.4 °F 0.0 °F 1036.8 in Calm     73 % 0.0 in 0.0 W/m2 CLR
18:49 4.4 °F 0.0 °F 1036.8 in Calm     73 % 0.0 in 0.0 W/m2 CLR
18:53 3.9 °F -0.5 °F 1036.8 in Calm     73 % 0.0 in 0.0 W/m2 CLR
18:55 3.9 °F -0.5 °F 1036.8 in Calm     73 % 0.0 in 0.0 W/m2 CLR
18:58 3.9 °F -0.3 °F 1036.8 in Calm     74 % 0.0 in 0.0 W/m2 CLR
19:01 3.9 °F -0.3 °F 1037.1 in Calm     74 % 0.0 in 0.0 W/m2 CLR
19:04 3.3 °F -0.9 °F 1037.1 in Calm     74 % 0.0 in 0.0 W/m2 CLR
19:09 3.3 °F -0.7 °F 1037.1 in Calm     75 % 0.0 in 0.0 W/m2 CLR
19:14 3.3 °F -0.7 °F 1037.1 in West 7.4 mph 7.4 mph 75 % 0.0 in 0.0 W/m2 CLR
19:16 3.3 °F -0.7 °F 1037.1 in WNW 1.9 mph   75 % 0.0 in 0.0 W/m2 CLR
19:21 3.3 °F -0.5 °F 1037.1 in NW 13.0 mph 13.0 mph 76 % 0.0 in 0.0 W/m2 CLR
19:22 3.3 °F -0.5 °F 1037.1 in NW 11.3 mph 11.3 mph 76 % 0.0 in 0.0 W/m2 CLR
19:25 2.8 °F -1.1 °F 1037.1 in WNW 13.0 mph 13.0 mph 76 % 0.0 in 0.0 W/m2 CLR
19:28 2.8 °F -1.2 °F 1037.1 in NW 9.3 mph 9.3 mph 75 % 0.0 in 0.0 W/m2 CLR
19:33 2.8 °F -1.2 °F 1037.1 in WNW 13.0 mph 13.0 mph 75 % 0.0 in 0.0 W/m2 CLR
19:38 2.8 °F -1.4 °F 1037.1 in West 8.0 mph 8.0 mph 74 % 0.0 in 0.0 W/m2 CLR
19:42 2.2 °F -1.9 °F 1037.1 in Calm     74 % 0.0 in 0.0 W/m2 CLR
19:44 2.2 °F -1.9 °F 1037.1 in WNW 11.3 mph 11.3 mph 74 % 0.0 in 0.0 W/m2 CLR
19:49 2.2 °F -1.8 °F 1037.1 in West 13.0 mph 13.0 mph 75 % 0.0 in 0.0 W/m2 CLR
19:54 2.2 °F -1.8 °F 1037.5 in WNW 9.3 mph 9.3 mph 75 % 0.0 in 0.0 W/m2 CLR
19:59 2.2 °F -1.6 °F 1037.5 in WNW 13.0 mph 13.0 mph 76 % 0.0 in 0.0 W/m2 CLR
20:03 2.2 °F -1.6 °F 1037.1 in WNW 6.4 mph 6.4 mph 76 % 0.0 in 0.0 W/m2 CLR
20:04 2.2 °F -1.6 °F 1037.1 in WNW 13.0 mph 13.0 mph 76 % 0.0 in 0.0 W/m2 CLR
20:09 2.2 °F -1.4 °F 1037.1 in WNW 11.1 mph 11.1 mph 77 % 0.0 in 0.0 W/m2 CLR
20:10 2.2 °F -1.4 °F 1037.1 in WNW 11.1 mph 11.1 mph 77 % 0.0 in 0.0 W/m2 CLR
20:15 2.2 °F -1.6 °F 1037.5 in WNW 11.3 mph 11.3 mph 76 % 0.0 in 0.0 W/m2 CLR
20:20 2.2 °F -1.6 °F 1037.5 in NW 16.1 mph 16.1 mph 76 % 0.0 in 0.0 W/m2 CLR
20:25 2.2 °F -1.6 °F 1037.5 in WNW 14.5 mph 14.5 mph 76 % 0.0 in 0.0 W/m2 CLR
20:26 2.2 °F -1.6 °F 1037.5 in WNW 16.7 mph 16.7 mph 76 % 0.0 in 0.0 W/m2 CLR
20:28 2.8 °F -1.1 °F 1037.5 in NW 9.7 mph 9.7 mph 76 % 0.0 in 0.0 W/m2 CLR
20:32 2.8 °F -1.1 °F 1037.5 in WNW 14.8 mph 14.8 mph 76 % 0.0 in 0.0 W/m2 CLR
20:37 2.2 °F -1.6 °F 1037.5 in WNW 14.8 mph 14.8 mph 76 % 0.0 in 0.0 W/m2 CLR
20:38 2.2 °F -1.6 °F 1037.5 in WNW 13.0 mph 13.0 mph 76 % 0.0 in 0.0 W/m2 CLR
20:42 2.2 °F -1.6 °F 1037.5 in West 13.0 mph 13.0 mph 76 % 0.0 in 0.0 W/m2 CLR
20:45 2.2 °F -1.6 °F 1037.5 in West 9.7 mph 9.7 mph 76 % 0.0 in 0.0 W/m2 CLR
20:50 2.2 °F -1.6 °F 1037.5 in West 9.3 mph 9.3 mph 76 % 0.0 in 0.0 W/m2 CLR
20:51 2.2 °F -1.4 °F 1037.5 in West 11.1 mph 11.1 mph 77 % 0.0 in 0.0 W/m2 CLR
20:57 2.2 °F -1.2 °F 1037.5 in WNW 14.8 mph 14.8 mph 78 % 0.0 in 0.0 W/m2 CLR
21:02 2.2 °F -1.2 °F 1037.5 in WNW 7.4 mph 7.4 mph 78 % 0.0 in 0.0 W/m2 CLR
21:05 2.2 °F -1.2 °F 1037.5 in WNW 20.4 mph 20.4 mph 78 % 0.0 in 0.0 W/m2 CLR
21:10 2.2 °F -1.4 °F 1037.5 in West 9.7 mph 9.7 mph 77 % 0.0 in 0.0 W/m2 CLR
21:13 2.2 °F -1.4 °F 1037.5 in West 14.8 mph 14.8 mph 77 % 0.0 in 0.0 W/m2 CLR
21:18 2.2 °F -1.4 °F 1037.5 in West 5.6 mph 5.6 mph 77 % 0.0 in 0.0 W/m2 CLR
21:20 2.2 °F -1.4 °F 1037.5 in WNW 11.3 mph 11.3 mph 77 % 0.0 in 0.0 W/m2 CLR
21:25 2.2 °F -1.2 °F 1037.5 in WNW 9.3 mph 9.3 mph 78 % 0.0 in 0.0 W/m2 CLR
21:26 2.2 °F -1.2 °F 1037.5 in West 11.1 mph 11.1 mph 78 % 0.0 in 0.0 W/m2 CLR
21:29 2.2 °F -1.2 °F 1037.5 in WNW 5.6 mph 7.1 mph 78 % 0.0 in 0.0 W/m2 CLR
21:32 2.2 °F -1.2 °F 1037.5 in West 11.1 mph 11.1 mph 78 % 0.0 in 0.0 W/m2 CLR
21:37 2.2 °F -1.2 °F 1037.5 in West 9.3 mph 9.3 mph 78 % 0.0 in 0.0 W/m2 CLR
21:38 2.2 °F -1.2 °F 1037.5 in West 9.3 mph 9.3 mph 78 % 0.0 in 0.0 W/m2 CLR
21:43 2.2 °F -1.2 °F 1037.5 in West 9.3 mph 9.3 mph 78 % 0.0 in 0.0 W/m2 CLR
21:48 2.2 °F -1.2 °F 1037.5 in West 7.4 mph 7.4 mph 78 % 0.0 in 0.0 W/m2 CLR
21:53 1.7 °F -1.6 °F 1037.5 in West 8.0 mph 8.0 mph 79 % 0.0 in 0.0 W/m2 CLR
21:58 1.7 °F -1.6 °F 1037.5 in West 7.4 mph 7.4 mph 79 % 0.0 in 0.0 W/m2 CLR
21:59 2.2 °F -1.1 °F 1037.5 in West 5.6 mph 5.6 mph 79 % 0.0 in 0.0 W/m2 CLR
22:04 2.2 °F -1.1 °F 1037.5 in West 14.8 mph 14.8 mph 79 % 0.0 in 0.0 W/m2 CLR
22:09 2.2 °F -0.9 °F 1037.5 in WNW 13.0 mph 13.0 mph 80 % 0.0 in 0.0 W/m2 CLR
22:10 2.2 °F -0.9 °F 1037.5 in WNW 13.0 mph 13.0 mph 80 % 0.0 in 0.0 W/m2 CLR
22:15 2.2 °F -0.9 °F 1037.5 in West 13.0 mph 13.0 mph 80 % 0.0 in 0.0 W/m2 CLR
22:16 2.2 °F -0.9 °F 1037.5 in West 13.0 mph 13.0 mph 80 % 0.0 in 0.0 W/m2 CLR
22:21 2.2 °F -1.1 °F 1037.5 in West 14.8 mph 14.8 mph 79 % 0.0 in 0.0 W/m2 CLR
22:23 2.2 °F -1.1 °F 1037.5 in WNW 16.7 mph 16.7 mph 79 % 0.0 in 0.0 W/m2 CLR
22:28 1.7 °F -1.6 °F 1037.5 in West 16.7 mph 16.7 mph 79 % 0.0 in 0.0 W/m2 CLR
22:33 1.7 °F -1.6 °F 1037.5 in WNW 14.5 mph 14.5 mph 79 % 0.0 in 0.0 W/m2 CLR
22:34 1.7 °F -1.6 °F 1037.5 in WNW 11.1 mph 11.1 mph 79 % 0.0 in 0.0 W/m2 CLR
22:38 1.7 °F -1.6 °F 1037.5 in West 14.8 mph 14.8 mph 79 % 0.0 in 0.0 W/m2 CLR
22:39 1.7 °F -1.6 °F 1037.5 in WNW 14.8 mph 14.8 mph 79 % 0.0 in 0.0 W/m2 CLR
22:43 1.7 °F -1.6 °F 1037.5 in West 16.1 mph 16.1 mph 79 % 0.0 in 0.0 W/m2 CLR
22:48 1.1 °F -2.1 °F 1037.5 in West 14.8 mph 14.8 mph 79 % 0.0 in 0.0 W/m2 CLR
22:49 1.1 °F -2.1 °F 1037.5 in WNW 11.1 mph 11.1 mph 79 % 0.0 in 0.0 W/m2 CLR
22:53 1.1 °F -2.1 °F 1037.5 in WNW 14.8 mph 14.8 mph 79 % 0.0 in 0.0 W/m2 CLR
22:56 1.1 °F -2.1 °F 1037.5 in West 9.7 mph 9.7 mph 79 % 0.0 in 0.0 W/m2 CLR
23:01 1.1 °F -1.9 °F 1037.8 in West 7.4 mph 7.4 mph 80 % 0.0 in 0.0 W/m2 CLR
23:02 1.1 °F -1.9 °F 1037.8 in West 9.3 mph 9.3 mph 80 % 0.0 in 0.0 W/m2 CLR
23:07 1.1 °F -1.9 °F 1037.5 in West 13.0 mph 13.0 mph 80 % 0.0 in 0.0 W/m2 CLR
23:12 1.1 °F -1.9 °F 1037.8 in West 14.8 mph 14.8 mph 80 % 0.0 in 0.0 W/m2 CLR
23:14 1.1 °F -1.9 °F 1037.8 in West 11.1 mph 11.1 mph 80 % 0.0 in 0.0 W/m2 CLR
23:19 1.1 °F -1.9 °F 1037.8 in WNW 13.0 mph 13.0 mph 80 % 0.0 in 0.0 W/m2 CLR
23:24 1.1 °F -1.9 °F 1037.5 in West 14.8 mph 14.8 mph 80 % 0.0 in 0.0 W/m2 CLR
23:25 1.1 °F -1.9 °F 1037.8 in WNW 14.8 mph 14.8 mph 80 % 0.0 in 0.0 W/m2 CLR
23:26 1.1 °F -2.1 °F 1037.8 in West 14.8 mph 14.8 mph 79 % 0.0 in 0.0 W/m2 CLR
23:31 1.1 °F -2.1 °F 1037.8 in West 14.8 mph 14.8 mph 79 % 0.0 in 0.0 W/m2 CLR
23:36 1.1 °F -1.9 °F 1037.8 in West 14.8 mph 14.8 mph 80 % 0.0 in 0.0 W/m2 CLR
23:41 0.6 °F -2.7 °F 1037.8 in West 9.3 mph 9.3 mph 79 % 0.0 in 0.0 W/m2 CLR
23:46 0.6 °F -2.5 °F 1037.8 in West 9.7 mph 9.7 mph 80 % 0.0 in 0.0 W/m2 CLR
23:50 1.1 °F -1.9 °F 1037.8 in West 8.0 mph 8.4 mph 80 % 0.0 in 0.0 W/m2 CLR
23:51 1.1 °F -1.9 °F 1037.8 in West 7.4 mph 7.4 mph 80 % 0.0 in 0.0 W/m2 CLR
23:56 1.1 °F -1.8 °F 1037.8 in West 9.3 mph 9.3 mph 81 % 0.0 in 0.0 W/m2 CLR
23:57 1.1 °F -1.8 °F 1037.8 in West 9.3 mph 9.3 mph 81 % 0.0 in 0.0 W/m2 CLR
23:59 1.1 °F -1.8 °F 1037.8 in West 9.3 mph 9.3 mph 81 % 0.0 in 0.0 W/m2 CLR
Lo Temps de Massalio
Compliments of Weather Underground - 1.75 mb